createdAt,value
2019-03-25T00:01:15.150Z,29.10
2019-03-25T00:03:48.424Z,30.33
2019-03-25T00:06:21.953Z,30.23
2019-03-25T00:09:04.799Z,30.23
2019-03-25T00:11:30.416Z,30.33
2019-03-25T00:14:14.780Z,31.10
2019-03-25T00:16:48.418Z,31.00
2019-03-25T00:19:21.665Z,31.63
2019-03-25T00:21:55.101Z,31.23
2019-03-25T00:24:38.236Z,31.47
2019-03-25T00:27:03.745Z,31.00
2019-03-25T00:29:37.110Z,30.87
2019-03-25T00:32:10.677Z,30.47
2019-03-25T00:34:43.922Z,29.40
2019-03-25T00:37:17.267Z,29.47
2019-03-25T00:39:50.527Z,28.90
2019-03-25T00:42:24.570Z,31.67
2019-03-25T00:44:57.925Z,30.27
2019-03-25T00:47:31.393Z,32.03
2019-03-25T00:50:04.823Z,32.00
2019-03-25T00:52:38.187Z,32.80
2019-03-25T00:55:11.727Z,33.03
2019-03-25T00:57:45.356Z,34.03
2019-03-25T01:00:18.806Z,33.53
2019-03-25T01:02:52.501Z,32.23
2019-03-25T01:05:25.821Z,33.90
2019-03-25T01:07:59.302Z,34.13
2019-03-25T01:10:33.398Z,34.27
2019-03-25T01:13:06.817Z,34.90
2019-03-25T01:15:40.442Z,31.87
2019-03-25T01:18:17.016Z,33.23
2019-03-25T01:20:48.919Z,35.20
2019-03-25T01:23:22.232Z,33.63
2019-03-25T01:25:55.490Z,33.33
2019-03-25T01:28:29.059Z,32.43
2019-03-25T01:31:03.265Z,32.47
2019-03-25T01:33:36.686Z,33.03
2019-03-25T01:36:10.059Z,32.47
2019-03-25T01:38:43.721Z,35.10
2019-03-25T01:41:16.947Z,34.00
2019-03-25T01:43:50.408Z,33.67
2019-03-25T01:46:23.655Z,32.43
2019-03-25T01:48:57.388Z,33.27
2019-03-25T01:51:30.643Z,32.67
2019-03-25T01:54:04.062Z,34.73
2019-03-25T01:56:38.025Z,35.27
2019-03-25T01:59:12.001Z,33.77
2019-03-25T02:01:45.460Z,35.27
2019-03-25T02:04:18.619Z,32.27
2019-03-25T02:06:52.311Z,36.77
2019-03-25T02:09:25.836Z,35.53
2019-03-25T02:11:59.192Z,35.37
2019-03-25T02:14:32.643Z,35.33
2019-03-25T02:17:06.922Z,36.67
2019-03-25T02:19:40.288Z,34.83
2019-03-25T02:22:13.721Z,34.20
2019-03-25T02:24:47.064Z,35.60
2019-03-25T02:27:20.522Z,34.40
2019-03-25T02:29:53.851Z,36.63
2019-03-25T02:32:27.190Z,35.07
2019-03-25T02:35:00.560Z,35.30
2019-03-25T02:37:34.147Z,35.57
2019-03-25T02:40:07.873Z,36.10
2019-03-25T02:42:41.414Z,36.60
2019-03-25T02:45:14.984Z,36.83
2019-03-25T02:47:48.283Z,35.70
2019-03-25T02:50:21.763Z,36.90
2019-03-25T02:52:55.068Z,36.63
2019-03-25T02:55:40.785Z,36.23
2019-03-25T02:58:04.321Z,37.33
2019-03-25T03:00:39.267Z,37.20
2019-03-25T03:03:12.733Z,37.03
2019-03-25T03:05:46.256Z,36.00
2019-03-25T03:08:20.041Z,37.47
2019-03-25T03:10:53.582Z,35.13
2019-03-25T03:13:27.031Z,37.00
2019-03-25T03:16:00.473Z,37.83
2019-03-25T03:18:34.615Z,36.90
2019-03-25T03:21:08.420Z,34.50
2019-03-25T03:23:43.001Z,37.87
2019-03-25T03:26:16.515Z,36.30
2019-03-25T03:28:50.211Z,36.13
2019-03-25T03:31:23.616Z,36.33
2019-03-25T03:33:57.391Z,36.30
2019-03-25T03:36:30.916Z,35.87
2019-03-25T03:39:05.582Z,35.77
2019-03-25T03:41:38.778Z,36.77
2019-03-25T03:44:12.212Z,36.50
2019-03-25T03:46:45.579Z,36.13
2019-03-25T03:49:19.120Z,35.53
2019-03-25T03:51:53.747Z,38.20
2019-03-25T03:54:27.471Z,35.60
2019-03-25T03:57:01.358Z,36.83
2019-03-25T03:59:35.214Z,34.70
2019-03-25T04:02:08.438Z,34.37
2019-03-25T04:04:41.754Z,34.60
2019-03-25T04:07:14.989Z,37.27
2019-03-25T04:09:48.277Z,33.90
2019-03-25T04:12:21.661Z,36.17
2019-03-25T04:14:55.143Z,35.90
2019-03-25T04:17:28.650Z,35.60
2019-03-25T04:20:02.291Z,35.47
2019-03-25T04:22:35.551Z,35.90
2019-03-25T04:25:09.635Z,34.60
2019-03-25T04:27:43.173Z,34.77
2019-03-25T04:30:26.392Z,34.73
2019-03-25T04:33:01.941Z,35.13
2019-03-25T04:35:35.368Z,35.63
2019-03-25T04:38:08.713Z,35.27
2019-03-25T04:40:42.036Z,35.50
2019-03-25T04:43:15.254Z,33.93
2019-03-25T04:45:48.846Z,35.70
2019-03-25T04:48:22.197Z,35.57
2019-03-25T04:50:55.627Z,34.00
2019-03-25T04:53:29.017Z,34.33
2019-03-25T04:56:02.515Z,35.90
2019-03-25T04:58:36.085Z,37.00
2019-03-25T05:01:09.525Z,34.47
2019-03-25T05:03:42.710Z,34.30
2019-03-25T05:06:16.450Z,35.03
2019-03-25T05:09:08.420Z,34.47
2019-03-25T05:11:41.886Z,35.83
2019-03-25T05:14:15.314Z,36.80
2019-03-25T05:16:49.884Z,38.07
2019-03-25T05:19:23.120Z,35.83
2019-03-25T05:21:56.366Z,38.47
2019-03-25T05:24:29.679Z,35.03
2019-03-25T05:27:03.026Z,34.47
2019-03-25T05:29:36.404Z,34.77
2019-03-25T05:32:09.810Z,34.10
2019-03-25T05:34:43.185Z,36.10
2019-03-25T05:37:17.252Z,34.73
2019-03-25T05:39:50.541Z,34.00
2019-03-25T05:42:23.951Z,36.23
2019-03-25T05:44:57.338Z,35.53
2019-03-25T05:47:31.037Z,33.43
2019-03-25T05:50:08.779Z,33.80
2019-03-25T05:52:41.484Z,32.40
2019-03-25T05:55:14.941Z,33.63
2019-03-25T05:57:48.278Z,38.53
2019-03-25T06:00:23.924Z,29.20
2019-03-25T06:02:57.612Z,28.63
2019-03-25T06:05:30.762Z,29.77
2019-03-25T06:08:04.153Z,31.33
2019-03-25T06:10:37.770Z,31.30
2019-03-25T06:13:11.145Z,30.43
2019-03-25T06:15:44.437Z,29.60
2019-03-25T06:18:20.306Z,30.50
2019-03-25T06:20:52.986Z,29.53
2019-03-25T06:23:26.367Z,27.23
2019-03-25T06:25:59.640Z,26.23
2019-03-25T06:28:32.864Z,27.03
2019-03-25T06:31:05.945Z,26.07
2019-03-25T06:33:39.583Z,26.00
2019-03-25T06:36:13.180Z,23.30
2019-03-25T06:38:46.929Z,24.30
2019-03-25T06:41:20.086Z,24.37
2019-03-25T06:43:53.357Z,22.80
2019-03-25T06:46:26.698Z,20.77
2019-03-25T06:48:59.883Z,19.07
2019-03-25T06:51:33.690Z,19.70
2019-03-25T06:54:07.042Z,19.00
2019-03-25T06:56:40.882Z,18.30
2019-03-25T06:59:14.277Z,21.23
2019-03-25T07:01:47.683Z,16.50
2019-03-25T07:04:21.015Z,15.10
2019-03-25T07:06:54.324Z,15.77
2019-03-25T07:09:27.635Z,14.07
2019-03-25T07:12:01.187Z,15.50
2019-03-25T07:14:34.762Z,13.67
2019-03-25T07:17:08.049Z,13.27
2019-03-25T07:19:41.467Z,14.17
2019-03-25T07:22:14.887Z,13.17
2019-03-25T07:24:48.480Z,13.57
2019-03-25T07:27:22.199Z,14.10
2019-03-25T07:29:55.555Z,13.57
2019-03-25T07:32:29.064Z,14.20
2019-03-25T07:35:02.274Z,15.70
2019-03-25T07:37:35.903Z,16.33
2019-03-25T07:40:10.064Z,15.13
2019-03-25T07:42:43.581Z,15.57
2019-03-25T07:45:16.948Z,16.50
2019-03-25T07:47:50.291Z,13.90
2019-03-25T07:50:23.843Z,13.93
2019-03-25T07:52:57.140Z,13.53
2019-03-25T07:55:30.491Z,14.27
2019-03-25T07:58:04.067Z,14.87
2019-03-25T08:00:37.589Z,17.67
2019-03-25T08:03:11.047Z,14.83
2019-03-25T08:05:44.590Z,14.57
2019-03-25T08:08:17.859Z,16.37
2019-03-25T08:10:51.242Z,15.00
2019-03-25T08:13:24.930Z,15.60
2019-03-25T08:15:58.448Z,14.70
2019-03-25T08:18:31.708Z,14.90
2019-03-25T08:21:05.156Z,16.57
2019-03-25T08:23:38.335Z,15.77
2019-03-25T08:26:22.010Z,15.80
2019-03-25T08:28:55.329Z,16.73
2019-03-25T08:31:28.575Z,16.13
2019-03-25T08:34:02.134Z,16.63
2019-03-25T08:36:35.466Z,16.77
2019-03-25T08:39:09.881Z,19.40
2019-03-25T08:41:43.484Z,18.53
2019-03-25T08:44:16.666Z,20.27
2019-03-25T08:46:50.010Z,19.60
2019-03-25T08:49:23.554Z,20.37
2019-03-25T08:51:57.003Z,18.97
2019-03-25T08:54:30.424Z,18.33
2019-03-25T08:57:04.030Z,18.43
2019-03-25T08:59:37.817Z,18.53
2019-03-25T09:02:11.157Z,18.07
2019-03-25T09:04:44.858Z,17.73
2019-03-25T09:07:18.050Z,15.93
2019-03-25T09:09:51.335Z,17.07
2019-03-25T09:12:24.617Z,17.47
2019-03-25T09:14:58.006Z,16.50
2019-03-25T09:17:31.266Z,16.53
2019-03-25T09:20:05.063Z,15.07
2019-03-25T09:22:38.414Z,15.30
2019-03-25T09:25:12.118Z,14.93
2019-03-25T09:27:45.616Z,14.93
2019-03-25T09:30:56.324Z,13.23
2019-03-25T09:33:29.793Z,13.23
2019-03-25T09:36:03.232Z,12.47
2019-03-25T09:38:36.687Z,13.45
2019-03-25T09:41:10.212Z,14.20
2019-03-25T09:43:43.566Z,12.63
2019-03-25T09:46:17.061Z,12.18
2019-03-25T09:48:50.844Z,11.90
2019-03-25T09:51:24.497Z,12.53
2019-03-25T09:53:57.975Z,11.88
2019-03-25T09:56:31.338Z,13.03
2019-03-25T09:59:04.759Z,13.38
2019-03-25T10:01:38.458Z,12.18
2019-03-25T10:04:11.756Z,11.48
2019-03-25T10:06:45.312Z,12.93
2019-03-25T10:09:18.648Z,11.73
2019-03-25T10:11:52.077Z,12.45
2019-03-25T10:14:25.669Z,11.77
2019-03-25T10:16:59.261Z,11.57
2019-03-25T10:19:32.447Z,11.95
2019-03-25T10:22:06.077Z,12.95
2019-03-25T10:24:39.401Z,12.03
2019-03-25T10:27:12.747Z,12.82
2019-03-25T10:29:46.056Z,12.10
2019-03-25T10:32:19.325Z,12.50
2019-03-25T10:34:52.613Z,12.40
2019-03-25T10:37:26.237Z,12.33
2019-03-25T10:39:59.434Z,11.50
2019-03-25T10:42:32.838Z,11.70
2019-03-25T10:45:06.956Z,11.18
2019-03-25T10:47:40.353Z,10.98
2019-03-25T10:50:14.378Z,12.10
2019-03-25T10:52:47.823Z,12.28
2019-03-25T10:55:21.502Z,12.10
2019-03-25T10:57:54.960Z,12.20
2019-03-25T11:00:28.527Z,12.13
2019-03-25T11:03:01.819Z,12.68
2019-03-25T11:05:34.914Z,12.93
2019-03-25T11:08:08.460Z,13.10
2019-03-25T11:10:41.723Z,13.23
2019-03-25T11:13:15.155Z,13.07
2019-03-25T11:15:48.444Z,13.13
2019-03-25T11:18:21.936Z,13.17
2019-03-25T11:20:55.726Z,14.87
2019-03-25T11:23:29.199Z,14.73
2019-03-25T11:26:02.587Z,15.07
2019-03-25T11:28:35.734Z,14.83
2019-03-25T11:31:09.078Z,15.17
2019-03-25T11:33:42.362Z,16.40
2019-03-25T11:36:15.593Z,16.90
2019-03-25T11:38:49.113Z,20.20
2019-03-25T11:41:22.477Z,20.10
2019-03-25T11:43:55.640Z,18.80
2019-03-25T11:46:29.067Z,19.97
2019-03-25T11:49:02.507Z,18.80
2019-03-25T11:51:36.070Z,20.83
2019-03-25T11:54:09.418Z,18.13
2019-03-25T11:56:42.723Z,10.50
2019-03-25T11:59:18.803Z,8.17
2019-03-25T12:01:50.994Z,9.90
2019-03-25T12:04:24.383Z,9.27
2019-03-25T12:06:57.593Z,7.17
2019-03-25T12:09:31.167Z,7.33
2019-03-25T12:12:04.667Z,9.70
2019-03-25T12:14:38.009Z,7.33
2019-03-25T12:17:11.438Z,8.53
2019-03-25T12:19:44.957Z,10.27
2019-03-25T12:22:18.126Z,8.90
2019-03-25T12:24:51.496Z,8.63
2019-03-25T12:27:24.941Z,9.80
2019-03-25T12:29:58.551Z,7.70
2019-03-25T12:32:31.811Z,7.43
2019-03-25T12:35:05.870Z,7.70
2019-03-25T12:37:39.127Z,6.40
2019-03-25T12:40:13.171Z,7.60
2019-03-25T12:42:46.544Z,7.07
2019-03-25T12:45:19.877Z,7.33
2019-03-25T12:47:53.241Z,7.47
2019-03-25T12:50:26.612Z,7.30
2019-03-25T12:52:59.960Z,7.67
2019-03-25T12:55:33.118Z,6.93
2019-03-25T12:58:07.426Z,7.03
2019-03-25T13:00:43.420Z,6.90
2019-03-25T13:03:16.806Z,6.53
2019-03-25T13:05:50.495Z,7.07
2019-03-25T13:08:32.772Z,6.87
2019-03-25T13:10:58.955Z,7.30
2019-03-25T13:13:32.189Z,7.13
2019-03-25T13:16:05.829Z,6.70
2019-03-25T13:18:39.179Z,6.53
2019-03-25T13:21:12.735Z,5.40
2019-03-25T13:23:46.190Z,6.43
2019-03-25T13:26:19.750Z,5.40
2019-03-25T13:29:01.618Z,5.13
2019-03-25T13:31:28.322Z,4.70
2019-03-25T13:34:01.650Z,4.13
2019-03-25T13:36:35.012Z,4.30
2019-03-25T13:39:09.268Z,4.43
2019-03-25T13:41:42.502Z,4.30
2019-03-25T13:44:15.935Z,4.23
2019-03-25T13:46:49.288Z,3.63
2019-03-25T13:49:22.841Z,4.50
2019-03-25T13:51:57.064Z,3.60
2019-03-25T13:54:30.736Z,8.40
2019-03-25T13:57:04.476Z,10.80
2019-03-25T13:59:37.966Z,7.87
2019-03-25T14:02:11.629Z,3.90
2019-03-25T14:04:44.966Z,3.30
2019-03-25T14:07:18.867Z,3.53
2019-03-25T14:09:52.265Z,3.40
2019-03-25T14:12:25.493Z,5.47
2019-03-25T14:14:59.053Z,5.77
2019-03-25T14:17:32.464Z,11.40
2019-03-25T14:20:06.883Z,3.53
2019-03-25T14:22:40.463Z,4.50
2019-03-25T14:25:14.046Z,3.30
2019-03-25T14:27:47.703Z,11.57
2019-03-25T14:30:21.221Z,3.07
2019-03-25T14:32:54.680Z,7.93
2019-03-25T14:35:28.113Z,11.37
2019-03-25T14:38:01.480Z,1.97
2019-03-25T14:40:35.124Z,2.83
2019-03-25T14:43:08.430Z,4.53
2019-03-25T14:45:41.839Z,4.53
2019-03-25T14:48:15.104Z,6.93
2019-03-25T14:50:48.669Z,1.57
2019-03-25T14:53:22.261Z,1.10
2019-03-25T14:55:55.968Z,1.50
2019-03-25T14:58:29.422Z,1.70
2019-03-25T15:01:03.044Z,1.63
2019-03-25T15:03:37.159Z,1.50
2019-03-25T15:06:10.483Z,2.10
2019-03-25T15:08:43.806Z,3.10
2019-03-25T15:11:17.115Z,2.67
2019-03-25T15:13:50.517Z,2.23
2019-03-25T15:16:24.135Z,2.67
2019-03-25T15:18:57.403Z,2.30
2019-03-25T15:21:30.842Z,3.00
2019-03-25T15:24:04.267Z,2.70
2019-03-25T15:26:37.653Z,2.30
2019-03-25T15:29:11.326Z,2.90
2019-03-25T15:31:44.516Z,3.07
2019-03-25T15:34:18.272Z,2.63
2019-03-25T15:36:51.597Z,2.30
2019-03-25T15:39:25.061Z,3.93
2019-03-25T15:41:58.701Z,2.47
2019-03-25T15:44:32.137Z,2.67
2019-03-25T15:47:05.468Z,1.90
2019-03-25T15:49:39.172Z,2.00
2019-03-25T15:52:12.436Z,1.53
2019-03-25T15:54:45.713Z,2.10
2019-03-25T15:57:18.984Z,1.53
2019-03-25T15:59:52.328Z,1.47
2019-03-25T16:02:25.615Z,0.80
2019-03-25T16:04:58.965Z,1.50
2019-03-25T16:07:32.231Z,1.40
2019-03-25T16:10:05.986Z,0.90
2019-03-25T16:12:39.394Z,1.20
2019-03-25T16:15:16.700Z,1.20
2019-03-25T16:17:50.100Z,1.20
2019-03-25T16:20:23.642Z,1.70
2019-03-25T16:22:57.063Z,1.40
2019-03-25T16:25:30.890Z,1.67
2019-03-25T16:28:04.181Z,2.03
2019-03-25T16:30:37.543Z,1.37
2019-03-25T16:33:10.761Z,1.80
2019-03-25T16:35:44.294Z,1.67
2019-03-25T16:38:17.803Z,2.50
2019-03-25T16:40:51.278Z,1.80
2019-03-25T16:43:24.820Z,2.33
2019-03-25T16:45:58.663Z,2.20
2019-03-25T16:48:31.834Z,2.00
2019-03-25T16:51:05.375Z,2.23
2019-03-25T16:53:38.945Z,2.40
2019-03-25T16:56:12.395Z,2.13
2019-03-25T16:58:45.852Z,6.00
2019-03-25T17:01:19.452Z,9.93
2019-03-25T17:03:53.043Z,5.80
2019-03-25T17:06:26.443Z,3.00
2019-03-25T17:08:59.883Z,4.60
2019-03-25T17:11:33.256Z,7.93
2019-03-25T17:14:06.905Z,3.83
2019-03-25T17:16:40.180Z,3.93
2019-03-25T17:19:13.726Z,2.97
2019-03-25T17:21:57.418Z,3.30
2019-03-25T17:24:22.371Z,2.80
2019-03-25T17:26:55.767Z,2.97
2019-03-25T17:29:29.142Z,2.40
2019-03-25T17:32:02.796Z,3.67
2019-03-25T17:34:36.452Z,11.30
2019-03-25T17:37:10.281Z,4.03
2019-03-25T17:39:43.643Z,5.30
2019-03-25T17:42:17.175Z,4.60
2019-03-25T17:44:50.981Z,4.40
2019-03-25T17:47:24.383Z,6.07
2019-03-25T17:49:57.812Z,4.30
2019-03-25T17:52:31.227Z,3.90
2019-03-25T17:55:04.875Z,9.13
2019-03-25T17:57:38.598Z,4.50
2019-03-25T18:00:14.317Z,5.60
2019-03-25T18:02:48.069Z,5.60
2019-03-25T18:05:21.553Z,9.87
2019-03-25T18:07:55.333Z,10.33
2019-03-25T18:10:28.670Z,10.47
2019-03-25T18:13:22.380Z,12.73
2019-03-25T18:15:49.619Z,22.80
2019-03-25T18:18:23.043Z,13.27
2019-03-25T18:20:56.715Z,6.47
2019-03-25T18:23:30.145Z,4.10
2019-03-25T18:26:03.861Z,4.67
2019-03-25T18:28:37.473Z,2.87
2019-03-25T18:31:11.210Z,3.20
2019-03-25T18:33:44.894Z,2.93
2019-03-25T18:36:18.554Z,3.17
2019-03-25T18:38:52.321Z,4.00
2019-03-25T18:41:26.455Z,3.10
2019-03-25T18:44:00.499Z,5.70
2019-03-25T18:46:34.147Z,5.87
2019-03-25T18:49:07.668Z,3.93
2019-03-25T18:51:41.299Z,3.40
2019-03-25T18:54:14.663Z,5.50
2019-03-25T18:56:48.427Z,3.40
2019-03-25T18:59:21.783Z,3.70
2019-03-25T19:01:55.138Z,3.50
2019-03-25T19:04:29.011Z,3.53
2019-03-25T19:07:03.474Z,3.60
2019-03-25T19:09:36.884Z,3.47
2019-03-25T19:12:10.963Z,3.00
2019-03-25T19:14:44.276Z,3.40
2019-03-25T19:17:18.352Z,3.83
2019-03-25T19:19:51.690Z,3.20
2019-03-25T19:22:25.288Z,4.33
2019-03-25T19:24:58.587Z,4.40
2019-03-25T19:27:32.471Z,4.10
2019-03-25T19:30:07.158Z,4.00
2019-03-25T19:32:40.867Z,3.40
2019-03-25T19:35:14.601Z,3.47
2019-03-25T19:37:48.177Z,34.10
2019-03-25T19:40:21.545Z,4.90
2019-03-25T19:42:55.110Z,3.77
2019-03-25T19:45:28.450Z,3.77
2019-03-25T19:48:01.588Z,3.83
2019-03-25T19:50:35.088Z,3.97
2019-03-25T19:53:18.642Z,3.73
2019-03-25T19:55:43.924Z,4.10
2019-03-25T19:58:17.789Z,3.43
2019-03-25T20:00:51.407Z,3.53
2019-03-25T20:03:25.227Z,4.20
2019-03-25T20:05:58.597Z,3.60
2019-03-25T20:08:32.798Z,4.30
2019-03-25T20:11:06.390Z,3.77
2019-03-25T20:13:39.711Z,3.40
2019-03-25T20:16:13.463Z,3.50
2019-03-25T20:18:47.089Z,3.20
2019-03-25T20:21:20.609Z,4.50
2019-03-25T20:23:54.060Z,5.20
2019-03-25T20:26:27.764Z,7.40
2019-03-25T20:29:01.252Z,5.50
2019-03-25T20:31:34.505Z,6.57
2019-03-25T20:34:11.257Z,7.53
2019-03-25T20:36:43.542Z,4.67
2019-03-25T20:39:17.010Z,4.83
2019-03-25T20:41:50.446Z,5.87
2019-03-25T20:44:23.961Z,4.07
2019-03-25T20:46:57.673Z,4.10
2019-03-25T20:49:31.173Z,4.20
2019-03-25T20:52:05.228Z,3.77
2019-03-25T20:54:38.714Z,3.97
2019-03-25T20:57:12.023Z,4.50
2019-03-25T20:59:55.208Z,4.20
2019-03-25T21:02:28.569Z,3.87
2019-03-25T21:05:01.927Z,4.20
2019-03-25T21:07:35.542Z,3.70
2019-03-25T21:10:10.392Z,3.97
2019-03-25T21:12:43.996Z,3.30
2019-03-25T21:15:17.226Z,3.20
2019-03-25T21:17:50.761Z,3.80
2019-03-25T21:20:24.313Z,3.50
2019-03-25T21:22:58.193Z,4.13
2019-03-25T21:25:31.456Z,3.03
2019-03-25T21:28:07.961Z,3.43
2019-03-25T21:30:47.767Z,3.60
2019-03-25T21:33:16.726Z,3.30
2019-03-25T21:35:50.102Z,3.53
2019-03-25T21:38:23.540Z,3.57
2019-03-25T21:40:56.778Z,3.53
2019-03-25T21:43:30.355Z,3.60
2019-03-25T21:46:03.585Z,3.17
2019-03-25T21:48:39.822Z,3.17
2019-03-25T21:51:13.642Z,3.77
2019-03-25T21:53:47.065Z,3.73
2019-03-25T21:56:20.510Z,3.77
2019-03-25T21:58:54.290Z,3.67
2019-03-25T22:01:27.928Z,3.60
2019-03-25T22:04:01.205Z,3.87
2019-03-25T22:06:37.404Z,3.67
2019-03-25T22:09:11.002Z,3.60
2019-03-25T22:11:44.469Z,3.93
2019-03-25T22:14:18.148Z,4.13
2019-03-25T22:16:51.454Z,4.57
2019-03-25T22:19:24.959Z,4.30
2019-03-25T22:21:58.170Z,4.20
2019-03-25T22:24:31.786Z,4.00
2019-03-25T22:27:05.378Z,4.30
2019-03-25T22:29:38.679Z,4.23
2019-03-25T22:32:11.884Z,4.20
2019-03-25T22:34:45.585Z,4.23
2019-03-25T22:37:18.829Z,4.50
2019-03-25T22:39:52.461Z,4.20
2019-03-25T22:42:25.876Z,3.80
2019-03-25T22:44:59.335Z,3.90
2019-03-25T22:47:32.585Z,3.70
2019-03-25T22:50:07.660Z,4.53
2019-03-25T22:52:40.847Z,4.13
2019-03-25T22:55:13.976Z,4.10
2019-03-25T22:57:47.359Z,4.20
2019-03-25T23:00:24.464Z,4.17
2019-03-25T23:02:58.182Z,4.37
2019-03-25T23:05:31.541Z,4.40
2019-03-25T23:08:04.619Z,4.43
2019-03-25T23:10:38.029Z,4.87
2019-03-25T23:13:11.743Z,4.33
2019-03-25T23:15:45.081Z,4.07
2019-03-25T23:18:18.584Z,4.03
2019-03-25T23:20:51.989Z,4.87
2019-03-25T23:23:25.281Z,5.07
2019-03-25T23:25:58.884Z,4.80
2019-03-25T23:28:32.465Z,5.03
2019-03-25T23:31:05.956Z,4.87
2019-03-25T23:33:51.429Z,4.07
2019-03-25T23:36:14.543Z,4.50
2019-03-25T23:38:47.789Z,4.00
2019-03-25T23:41:23.175Z,4.23
2019-03-25T23:43:56.395Z,4.23
2019-03-25T23:46:30.132Z,4.47
2019-03-25T23:49:03.571Z,4.40
2019-03-25T23:51:38.009Z,4.20
2019-03-25T23:54:12.518Z,4.37
2019-03-25T23:56:46.111Z,4.60
2019-03-25T23:59:19.313Z,4.50
